createdAt,value
2023-02-11T00:02:09.923Z,5.59
2023-02-11T00:04:36.481Z,5.59
2023-02-11T00:07:03.008Z,5.59
2023-02-11T00:09:31.814Z,5.61
2023-02-11T00:11:58.708Z,5.60
2023-02-11T00:14:25.208Z,5.60
2023-02-11T00:16:52.363Z,5.61
2023-02-11T00:19:19.025Z,5.60
2023-02-11T00:21:45.499Z,5.60
2023-02-11T00:24:11.973Z,5.59
2023-02-11T00:26:38.762Z,5.60
2023-02-11T00:29:05.824Z,5.57
2023-02-11T00:31:32.908Z,5.57
2023-02-11T00:33:59.661Z,5.57
2023-02-11T00:36:29.355Z,5.56
2023-02-11T00:38:57.402Z,5.57
2023-02-11T00:41:25.007Z,5.56
2023-02-11T00:43:51.923Z,5.56
2023-02-11T00:46:21.954Z,5.56
2023-02-11T00:48:49.107Z,5.57
2023-02-11T00:51:15.669Z,5.57
2023-02-11T00:53:42.439Z,5.56
2023-02-11T00:56:09.552Z,5.55
2023-02-11T00:58:36.731Z,5.53
2023-02-11T01:01:03.867Z,5.52
2023-02-11T01:03:33.078Z,5.50
2023-02-11T01:05:59.637Z,5.48
2023-02-11T01:08:26.260Z,5.46
2023-02-11T01:11:01.837Z,5.42
2023-02-11T01:13:30.575Z,5.38
2023-02-11T01:15:57.681Z,5.35
2023-02-11T01:18:24.714Z,5.34
2023-02-11T01:20:52.379Z,5.34
2023-02-11T01:23:19.322Z,5.32
2023-02-11T01:25:46.073Z,5.28
2023-02-11T01:28:29.678Z,5.25
2023-02-11T01:30:56.677Z,5.23
2023-02-11T01:33:24.182Z,5.23
2023-02-11T01:35:51.346Z,5.24
2023-02-11T01:38:21.754Z,5.24
2023-02-11T01:40:54.760Z,5.26
2023-02-11T01:43:22.158Z,5.29
2023-02-11T01:45:57.868Z,5.31
2023-02-11T01:48:34.288Z,5.30
2023-02-11T01:51:09.912Z,5.27
2023-02-11T01:53:58.509Z,5.27
2023-02-11T01:56:48.854Z,5.24
2023-02-11T01:59:24.615Z,5.20
2023-02-11T02:01:59.027Z,5.18
2023-02-11T02:04:33.374Z,5.18
2023-02-11T02:07:06.524Z,5.20
2023-02-11T02:09:40.172Z,5.22
2023-02-11T02:12:06.712Z,5.21
2023-02-11T02:14:33.463Z,5.20
2023-02-11T02:17:00.288Z,5.19
2023-02-11T02:20:11.387Z,5.20
2023-02-11T02:22:43.715Z,5.15
2023-02-11T02:25:28.644Z,5.10
2023-02-11T02:28:18.695Z,5.05
2023-02-11T02:31:26.042Z,4.98
2023-02-11T02:34:24.378Z,4.90
2023-02-11T02:37:21.617Z,4.88
2023-02-11T02:39:50.325Z,4.89
2023-02-11T02:42:18.710Z,4.88
2023-02-11T02:44:50.454Z,4.89
2023-02-11T02:47:17.114Z,4.87
2023-02-11T02:49:43.712Z,4.89
2023-02-11T02:52:20.842Z,4.91
2023-02-11T02:55:05.354Z,4.92
2023-02-11T02:57:49.827Z,4.94
2023-02-11T03:00:36.276Z,4.97
2023-02-11T03:03:26.479Z,5.00
2023-02-11T03:06:04.548Z,5.00
2023-02-11T03:08:59.734Z,4.96
2023-02-11T03:11:29.308Z,4.96
2023-02-11T03:13:57.417Z,4.96
2023-02-11T03:16:27.247Z,4.96
2023-02-11T03:19:01.579Z,4.95
2023-02-11T03:21:30.973Z,4.94
2023-02-11T03:24:03.085Z,4.92
2023-02-11T03:26:53.044Z,4.91
2023-02-11T03:29:36.324Z,4.92
2023-02-11T03:32:16.029Z,4.89
2023-02-11T03:35:08.003Z,4.87
2023-02-11T03:37:55.649Z,4.85
2023-02-11T03:40:26.174Z,4.85
2023-02-11T03:43:30.981Z,4.85
2023-02-11T03:45:59.093Z,4.84
2023-02-11T03:48:33.542Z,4.81
2023-02-11T03:51:03.248Z,4.81
2023-02-11T03:53:30.287Z,4.74
2023-02-11T03:56:00.271Z,4.71
2023-02-11T03:58:27.086Z,4.68
2023-02-11T04:00:53.882Z,4.70
2023-02-11T04:03:20.438Z,4.71
2023-02-11T04:05:47.346Z,4.72
2023-02-11T04:08:13.937Z,4.76
2023-02-11T04:10:40.632Z,4.78
2023-02-11T04:13:07.164Z,4.82
2023-02-11T04:15:33.652Z,4.82
2023-02-11T04:18:00.155Z,4.83
2023-02-11T04:20:26.847Z,4.85
2023-02-11T04:22:53.278Z,4.87
2023-02-11T04:25:19.924Z,4.87
2023-02-11T04:27:46.426Z,4.87
2023-02-11T04:30:13.480Z,4.90
2023-02-11T04:32:39.961Z,4.90
2023-02-11T04:35:06.983Z,4.91
2023-02-11T04:37:33.578Z,4.93
2023-02-11T04:40:00.128Z,4.94
2023-02-11T04:42:26.658Z,4.95
2023-02-11T04:44:53.102Z,4.96
2023-02-11T04:47:19.816Z,4.98
2023-02-11T04:49:46.557Z,4.99
2023-02-11T04:52:12.985Z,5.00
2023-02-11T04:54:48.484Z,5.01
2023-02-11T04:57:15.018Z,5.02
2023-02-11T04:59:41.999Z,5.03
2023-02-11T05:02:09.517Z,5.03
2023-02-11T05:04:36.035Z,5.05
2023-02-11T05:07:02.825Z,5.06
2023-02-11T05:09:29.534Z,5.08
2023-02-11T05:11:56.099Z,5.09
2023-02-11T05:14:25.679Z,5.10
2023-02-11T05:16:52.249Z,5.13
2023-02-11T05:19:21.997Z,5.14
2023-02-11T05:22:01.833Z,5.15
2023-02-11T05:24:29.846Z,5.15
2023-02-11T05:26:56.542Z,5.14
2023-02-11T05:29:23.288Z,5.18
2023-02-11T05:31:49.964Z,5.19
2023-02-11T05:34:16.599Z,5.20
2023-02-11T05:36:43.055Z,5.22
2023-02-11T05:39:09.699Z,5.22
2023-02-11T05:41:36.336Z,5.23
2023-02-11T05:44:02.960Z,5.25
2023-02-11T05:46:29.540Z,5.23
2023-02-11T05:48:56.929Z,5.24
2023-02-11T05:51:25.232Z,5.25
2023-02-11T05:53:51.767Z,5.26
2023-02-11T05:56:18.223Z,5.27
2023-02-11T05:58:44.589Z,5.28
2023-02-11T06:01:11.352Z,5.28
2023-02-11T06:03:38.126Z,5.27
2023-02-11T06:06:05.036Z,5.28
2023-02-11T06:08:31.493Z,5.29
2023-02-11T06:10:57.970Z,5.30
2023-02-11T06:13:24.427Z,5.31
2023-02-11T06:15:58.736Z,5.31
2023-02-11T06:18:25.740Z,5.34
2023-02-11T06:20:52.920Z,5.35
2023-02-11T06:23:19.826Z,5.37
2023-02-11T06:25:47.041Z,5.38
2023-02-11T06:28:13.847Z,5.39
2023-02-11T06:30:40.908Z,5.40
2023-02-11T06:33:07.382Z,5.39
2023-02-11T06:35:35.536Z,5.40
2023-02-11T06:38:02.165Z,5.41
2023-02-11T06:40:28.670Z,5.43
2023-02-11T06:42:55.267Z,5.44
2023-02-11T06:45:21.718Z,5.44
2023-02-11T06:47:48.155Z,5.45
2023-02-11T06:50:15.191Z,5.45
2023-02-11T06:52:41.783Z,5.47
2023-02-11T06:55:08.756Z,5.47
2023-02-11T06:57:35.894Z,5.49
2023-02-11T07:00:02.887Z,5.49
2023-02-11T07:02:29.644Z,5.49
2023-02-11T07:04:58.391Z,5.50
2023-02-11T07:07:25.108Z,5.52
2023-02-11T07:09:51.596Z,5.53
2023-02-11T07:12:18.316Z,5.56
2023-02-11T07:14:44.759Z,5.57
2023-02-11T07:17:11.131Z,5.58
2023-02-11T07:19:38.164Z,5.59
2023-02-11T07:22:04.638Z,5.61
2023-02-11T07:24:31.388Z,5.63
2023-02-11T07:27:24.167Z,5.67
2023-02-11T07:29:53.694Z,5.68
2023-02-11T07:32:27.977Z,5.72
2023-02-11T07:34:54.534Z,5.73
2023-02-11T07:37:21.871Z,5.77
2023-02-11T07:39:50.962Z,5.79
2023-02-11T07:42:17.689Z,5.81
2023-02-11T07:45:40.891Z,5.83
2023-02-11T07:47:42.808Z,5.86
2023-02-11T07:50:10.663Z,5.87
2023-02-11T07:52:37.481Z,5.87
2023-02-11T07:55:07.119Z,5.88
2023-02-11T07:57:33.657Z,5.89
2023-02-11T08:00:02.405Z,5.90
2023-02-11T08:02:31.152Z,5.93
2023-02-11T08:05:00.713Z,5.94
2023-02-11T08:07:29.600Z,5.97
2023-02-11T08:09:57.630Z,5.99
2023-02-11T08:12:28.837Z,6.01
2023-02-11T08:14:58.813Z,6.04
2023-02-11T08:17:26.492Z,6.08
2023-02-11T08:19:53.934Z,6.09
2023-02-11T08:25:31.170Z,6.11
2023-02-11T08:28:05.173Z,6.13
2023-02-11T08:30:32.967Z,6.16
2023-02-11T08:33:15.165Z,6.16
2023-02-11T08:35:55.043Z,6.18
2023-02-11T08:38:45.761Z,6.21
2023-02-11T08:41:45.775Z,6.24
2023-02-11T08:48:51.361Z,6.31
2023-02-11T08:51:42.941Z,6.35
2023-02-11T08:54:11.422Z,6.38
2023-02-11T08:56:38.845Z,6.41
2023-02-11T08:59:07.318Z,6.45
2023-02-11T09:01:34.342Z,6.50
2023-02-11T09:04:02.263Z,6.55
2023-02-11T09:06:29.471Z,6.60
2023-02-11T09:09:00.134Z,6.65
2023-02-11T09:11:32.984Z,6.70
2023-02-11T09:14:01.083Z,6.78
2023-02-11T09:16:32.253Z,6.83
2023-02-11T09:19:00.671Z,6.88
2023-02-11T09:21:29.245Z,6.88
2023-02-11T09:23:56.273Z,6.91
2023-02-11T09:26:29.212Z,6.96
2023-02-11T09:29:00.380Z,7.00
2023-02-11T09:31:29.595Z,7.02
2023-02-11T09:34:00.504Z,7.03
2023-02-11T09:36:30.000Z,7.05
2023-02-11T09:39:00.740Z,7.09
2023-02-11T09:41:47.133Z,7.11
2023-02-11T09:44:29.852Z,7.18
2023-02-11T09:46:59.922Z,7.23
2023-02-11T09:49:53.813Z,7.27
2023-02-11T09:52:46.927Z,7.34
2023-02-11T09:55:55.999Z,7.41
2023-02-11T09:58:36.852Z,7.42
2023-02-11T10:01:22.130Z,7.47
2023-02-11T10:03:48.637Z,7.50
2023-02-11T10:06:31.245Z,7.54
2023-02-11T10:09:22.051Z,7.59
2023-02-11T10:12:26.099Z,7.65
2023-02-11T10:15:16.160Z,7.70
2023-02-11T10:17:51.822Z,7.76
2023-02-11T10:20:55.514Z,7.77
2023-02-11T10:23:29.851Z,7.93
2023-02-11T10:25:59.045Z,8.04
2023-02-11T10:28:34.732Z,8.10
2023-02-11T10:31:09.819Z,8.22
2023-02-11T10:33:45.461Z,8.28
2023-02-11T10:36:13.544Z,8.27
2023-02-11T10:38:40.743Z,8.34
2023-02-11T10:41:13.899Z,8.40
2023-02-11T10:43:42.694Z,8.45
2023-02-11T10:46:18.604Z,8.42
2023-02-11T10:48:51.592Z,8.37
2023-02-11T10:51:28.450Z,8.32
2023-02-11T10:54:03.826Z,8.25
2023-02-11T10:56:34.373Z,8.24
2023-02-11T10:59:04.842Z,8.25
2023-02-11T11:01:56.347Z,8.24
2023-02-11T11:04:40.428Z,8.28
2023-02-11T11:07:12.141Z,8.35
2023-02-11T11:09:59.212Z,8.47
2023-02-11T11:12:27.931Z,8.64
2023-02-11T11:14:58.786Z,8.80
2023-02-11T11:17:30.349Z,8.84
2023-02-11T11:20:23.140Z,8.79
2023-02-11T11:22:52.603Z,8.72
2023-02-11T11:25:25.124Z,8.73
2023-02-11T11:27:54.180Z,8.66
2023-02-11T11:30:21.015Z,8.64
2023-02-11T11:32:47.609Z,8.69
2023-02-11T11:35:25.295Z,8.77
2023-02-11T11:38:04.049Z,8.90
2023-02-11T11:40:33.176Z,8.99
2023-02-11T11:43:22.651Z,9.07
2023-02-11T11:45:57.727Z,9.11
2023-02-11T11:51:35.018Z,9.26
2023-02-11T11:54:06.556Z,9.26
2023-02-11T11:56:37.984Z,9.23
2023-02-11T11:59:14.000Z,9.14
2023-02-11T12:02:02.428Z,9.11
2023-02-11T12:04:42.786Z,9.16
2023-02-11T12:07:40.278Z,9.28
2023-02-11T12:10:31.819Z,9.32
2023-02-11T12:13:28.572Z,9.39
2023-02-11T12:16:33.729Z,9.35
2023-02-11T12:19:34.478Z,9.29
2023-02-11T12:22:36.634Z,9.37
2023-02-11T12:25:25.222Z,9.43
2023-02-11T12:28:04.118Z,9.45
2023-02-11T12:31:01.181Z,9.43
2023-02-11T12:33:55.563Z,9.36
2023-02-11T12:36:42.765Z,9.28
2023-02-11T12:39:32.221Z,9.24
2023-02-11T12:42:32.621Z,9.29
2023-02-11T12:45:11.344Z,9.42
2023-02-11T12:47:56.059Z,9.51
2023-02-11T12:50:45.713Z,9.57
2023-02-11T12:53:32.285Z,9.58
2023-02-11T12:56:05.472Z,9.52
2023-02-11T12:58:45.081Z,9.43
2023-02-11T13:01:39.770Z,9.42
2023-02-11T13:04:13.660Z,9.47
2023-02-11T13:06:54.886Z,9.61
2023-02-11T13:09:35.657Z,9.71
2023-02-11T13:12:22.585Z,9.81
2023-02-11T13:14:52.179Z,9.95
2023-02-11T13:17:36.732Z,9.94
2023-02-11T13:20:18.085Z,10.07
2023-02-11T13:22:57.235Z,10.16
2023-02-11T13:25:40.761Z,10.03
2023-02-11T13:28:27.571Z,10.09
2023-02-11T13:31:02.600Z,10.02
2023-02-11T13:33:36.463Z,9.94
2023-02-11T13:36:04.752Z,9.91
2023-02-11T13:38:32.633Z,9.92
2023-02-11T13:41:41.319Z,9.93
2023-02-11T13:44:10.561Z,9.88
2023-02-11T13:46:55.684Z,9.88
2023-02-11T13:49:42.232Z,9.91
2023-02-11T13:52:18.651Z,9.91
2023-02-11T13:54:51.066Z,9.97
2023-02-11T13:57:20.747Z,9.97
2023-02-11T14:00:30.447Z,9.96
2023-02-11T14:03:30.756Z,9.86
2023-02-11T14:06:27.829Z,9.88
2023-02-11T14:09:09.530Z,9.88
2023-02-11T14:12:29.943Z,9.77
2023-02-11T14:15:07.870Z,9.68
2023-02-11T14:17:34.826Z,9.71
2023-02-11T14:20:04.593Z,9.74
2023-02-11T14:22:43.043Z,9.74
2023-02-11T14:25:21.828Z,9.71
2023-02-11T14:27:56.696Z,9.75
2023-02-11T14:30:35.564Z,9.79
2023-02-11T14:33:20.322Z,9.83
2023-02-11T14:36:10.157Z,9.85
2023-02-11T14:38:58.436Z,9.88
2023-02-11T14:41:39.898Z,9.94
2023-02-11T14:44:19.356Z,9.93
2023-02-11T14:46:48.703Z,9.89
2023-02-11T14:49:29.117Z,9.87
2023-02-11T14:52:03.879Z,9.83
2023-02-11T14:54:31.257Z,9.82
2023-02-11T14:57:30.677Z,9.74
2023-02-11T15:00:03.215Z,9.65
2023-02-11T15:02:34.007Z,9.60
2023-02-11T15:05:22.637Z,9.63
2023-02-11T15:07:55.699Z,9.63
2023-02-11T15:10:41.439Z,9.62
2023-02-11T15:13:09.058Z,9.62
2023-02-11T15:15:40.557Z,9.59
2023-02-11T15:18:09.508Z,9.58
2023-02-11T15:20:36.061Z,9.60
2023-02-11T15:23:07.200Z,9.57
2023-02-11T15:25:34.437Z,9.55
2023-02-11T15:28:01.045Z,9.50
2023-02-11T15:30:34.002Z,9.44
2023-02-11T15:33:03.317Z,9.39
2023-02-11T15:35:39.712Z,9.32
2023-02-11T15:38:07.467Z,9.26
2023-02-11T15:40:36.886Z,9.22
2023-02-11T15:43:06.992Z,9.17
2023-02-11T15:45:36.913Z,9.11
2023-02-11T15:48:20.121Z,9.02
2023-02-11T15:50:55.552Z,8.98
2023-02-11T15:53:27.533Z,8.94
2023-02-11T15:56:17.999Z,8.90
2023-02-11T15:58:47.777Z,8.87
2023-02-11T16:01:14.636Z,8.82
2023-02-11T16:03:43.283Z,8.76
2023-02-11T16:06:35.013Z,8.75
2023-02-11T16:09:10.999Z,8.71
2023-02-11T16:11:54.847Z,8.67
2023-02-11T16:14:27.765Z,8.64
2023-02-11T16:16:57.845Z,8.61
2023-02-11T16:19:26.495Z,8.57
2023-02-11T16:21:55.203Z,8.50
2023-02-11T16:24:33.781Z,8.45
2023-02-11T16:27:02.577Z,8.37
2023-02-11T16:29:35.234Z,8.33
2023-02-11T16:32:26.771Z,8.31
2023-02-11T16:34:55.364Z,8.29
2023-02-11T16:37:21.826Z,8.27
2023-02-11T16:39:48.255Z,8.25
2023-02-11T16:42:15.736Z,8.24
2023-02-11T16:44:42.141Z,8.22
2023-02-11T16:47:23.917Z,8.22
2023-02-11T16:49:50.696Z,8.21
2023-02-11T16:52:18.212Z,8.19
2023-02-11T16:54:44.797Z,8.18
2023-02-11T16:57:16.079Z,8.17
2023-02-11T16:59:43.357Z,8.15
2023-02-11T17:02:18.477Z,8.14
2023-02-11T17:04:45.464Z,8.12
2023-02-11T17:07:12.569Z,8.10
2023-02-11T17:09:39.183Z,8.10
2023-02-11T17:12:06.307Z,8.10
2023-02-11T17:14:32.741Z,8.10
2023-02-11T17:16:59.164Z,8.09
2023-02-11T17:19:25.582Z,8.09
2023-02-11T17:21:53.084Z,8.05
2023-02-11T17:24:21.579Z,8.03
2023-02-11T17:26:49.599Z,8.00
2023-02-11T17:29:18.907Z,7.98
2023-02-11T17:31:45.490Z,7.97
2023-02-11T17:34:12.358Z,7.94
2023-02-11T17:36:41.204Z,7.92
2023-02-11T17:39:08.458Z,7.86
2023-02-11T17:41:38.244Z,7.85
2023-02-11T17:44:05.892Z,7.83
2023-02-11T17:46:34.303Z,7.80
2023-02-11T17:49:01.965Z,7.78
2023-02-11T17:51:36.929Z,7.77
2023-02-11T17:54:06.589Z,7.76
2023-02-11T17:56:35.671Z,7.74
2023-02-11T17:59:02.904Z,7.72
2023-02-11T18:01:31.477Z,7.71
2023-02-11T18:03:58.090Z,7.68
2023-02-11T18:06:24.802Z,7.67
2023-02-11T18:08:51.652Z,7.64
2023-02-11T18:11:18.724Z,7.63
2023-02-11T18:13:45.489Z,7.62
2023-02-11T18:16:15.572Z,7.60
2023-02-11T18:18:43.531Z,7.57
2023-02-11T18:21:18.823Z,7.56
2023-02-11T18:23:46.293Z,7.56
2023-02-11T18:26:14.479Z,7.54
2023-02-11T18:28:43.896Z,7.53
2023-02-11T18:31:12.357Z,7.52
2023-02-11T18:33:40.110Z,7.50
2023-02-11T18:36:11.892Z,7.49
2023-02-11T18:38:39.229Z,7.50
2023-02-11T18:41:07.136Z,7.49
2023-02-11T18:43:34.403Z,7.50
2023-02-11T18:46:06.228Z,7.50
2023-02-11T18:48:32.984Z,7.50
2023-02-11T18:51:00.212Z,7.49
2023-02-11T18:53:26.777Z,7.49
2023-02-11T18:55:54.117Z,7.49
2023-02-11T18:58:23.724Z,7.50
2023-02-11T19:00:50.562Z,7.47
2023-02-11T19:03:17.088Z,7.46
2023-02-11T19:05:47.284Z,7.45
2023-02-11T19:08:14.487Z,7.44
2023-02-11T19:10:47.832Z,7.44
2023-02-11T19:13:14.751Z,7.45
2023-02-11T19:15:42.751Z,7.44
2023-02-11T19:18:09.851Z,7.44
2023-02-11T19:20:39.503Z,7.43
2023-02-11T19:23:05.985Z,7.43
2023-02-11T19:25:32.879Z,7.42
2023-02-11T19:28:00.284Z,7.41
2023-02-11T19:30:27.524Z,7.43
2023-02-11T19:32:56.986Z,7.45
2023-02-11T19:35:24.287Z,7.43
2023-02-11T19:37:50.783Z,7.45
2023-02-11T19:40:17.579Z,7.45
2023-02-11T19:42:44.946Z,7.45
2023-02-11T19:45:11.451Z,7.44
2023-02-11T19:47:38.026Z,7.44
2023-02-11T19:50:05.651Z,7.44
2023-02-11T19:52:32.148Z,7.43
2023-02-11T19:54:59.274Z,7.44
2023-02-11T19:57:25.933Z,7.43
2023-02-11T19:59:54.748Z,7.39
2023-02-11T20:02:21.290Z,7.40
2023-02-11T20:04:48.449Z,7.42
2023-02-11T20:07:15.050Z,7.41
2023-02-11T20:09:42.503Z,7.42
2023-02-11T20:12:09.290Z,7.40
2023-02-11T20:14:35.753Z,7.39
2023-02-11T20:17:02.477Z,7.40
2023-02-11T20:19:30.524Z,7.40
2023-02-11T20:21:57.114Z,7.39
2023-02-11T20:24:24.510Z,7.39
2023-02-11T20:26:55.178Z,7.40
2023-02-11T20:29:22.344Z,7.39
2023-02-11T20:31:50.219Z,7.36
2023-02-11T20:34:17.898Z,7.36
2023-02-11T20:36:51.420Z,7.36
2023-02-11T20:39:19.128Z,7.39
2023-02-11T20:41:46.124Z,7.36
2023-02-11T20:44:12.936Z,7.35
2023-02-11T20:46:43.510Z,7.33
2023-02-11T20:49:12.451Z,7.34
2023-02-11T20:51:39.332Z,7.36
2023-02-11T20:54:06.360Z,7.36
2023-02-11T20:56:36.658Z,7.35
2023-02-11T20:59:04.386Z,7.33
2023-02-11T21:01:43.603Z,7.29
2023-02-11T21:04:16.159Z,7.28
2023-02-11T21:06:45.809Z,7.30
2023-02-11T21:09:15.816Z,7.31
2023-02-11T21:11:43.048Z,7.29
2023-02-11T21:14:10.268Z,7.32
2023-02-11T21:16:37.128Z,7.31
2023-02-11T21:19:03.973Z,7.32
2023-02-11T21:21:30.734Z,7.31
2023-02-11T21:23:58.408Z,7.30
2023-02-11T21:26:24.991Z,7.28
2023-02-11T21:28:52.132Z,7.26
2023-02-11T21:31:24.938Z,7.26
2023-02-11T21:33:53.021Z,7.24
2023-02-11T21:36:20.253Z,7.25
2023-02-11T21:38:47.040Z,7.26
2023-02-11T21:41:13.540Z,7.26
2023-02-11T21:43:40.042Z,7.25
2023-02-11T21:46:09.001Z,7.26
2023-02-11T21:48:51.316Z,7.24
2023-02-11T21:51:21.131Z,7.21
2023-02-11T21:53:47.909Z,7.21
2023-02-11T21:56:17.211Z,7.23
2023-02-11T21:58:45.080Z,7.25
2023-02-11T22:01:17.791Z,7.26
2023-02-11T22:03:45.589Z,7.27
2023-02-11T22:06:14.840Z,7.26
2023-02-11T22:08:41.748Z,7.25
2023-02-11T22:11:11.108Z,7.23
2023-02-11T22:13:37.711Z,7.21
2023-02-11T22:16:07.404Z,7.21
2023-02-11T22:18:33.952Z,7.23
2023-02-11T22:21:02.699Z,7.22
2023-02-11T22:23:29.976Z,7.20
2023-02-11T22:25:57.339Z,7.19
2023-02-11T22:28:25.909Z,7.19
2023-02-11T22:30:54.252Z,7.19
2023-02-11T22:33:21.027Z,7.19
2023-02-11T22:35:47.438Z,7.19
2023-02-11T22:38:13.785Z,7.18
2023-02-11T22:40:43.964Z,7.16
2023-02-11T22:43:10.456Z,7.15
2023-02-11T22:45:36.904Z,7.17
2023-02-11T22:48:03.589Z,7.19
2023-02-11T22:50:30.210Z,7.19
2023-02-11T22:52:56.747Z,7.18
2023-02-11T22:55:23.223Z,7.16
2023-02-11T22:57:49.608Z,7.11
2023-02-11T23:00:17.132Z,7.09
2023-02-11T23:02:43.656Z,7.08
2023-02-11T23:05:10.102Z,7.11
2023-02-11T23:07:36.569Z,7.12
2023-02-11T23:10:03.767Z,7.12
2023-02-11T23:12:30.250Z,7.10
2023-02-11T23:14:56.719Z,7.09
2023-02-11T23:17:24.508Z,7.09
2023-02-11T23:19:51.111Z,7.09
2023-02-11T23:22:17.540Z,7.06
2023-02-11T23:24:43.970Z,7.03
2023-02-11T23:27:10.396Z,7.02
2023-02-11T23:29:36.894Z,7.03
2023-02-11T23:32:03.462Z,7.05
2023-02-11T23:34:29.912Z,7.06
2023-02-11T23:36:57.635Z,7.06
2023-02-11T23:39:24.112Z,7.11
2023-02-11T23:41:52.650Z,7.09
2023-02-11T23:44:19.050Z,7.08
2023-02-11T23:46:46.210Z,7.08
2023-02-11T23:49:12.970Z,7.10
2023-02-11T23:51:39.434Z,7.08
2023-02-11T23:54:05.981Z,7.04
2023-02-11T23:56:32.484Z,7.00
2023-02-11T23:58:59.327Z,6.99
